sensor_id;sensor_type;location;lat;lon;timestamp;pressure;altitude;pressure_sealevel;temperature;humidity
78679;BME280;67994;59.334;13.528;2023-04-02T00:00:17;101800.0;;;-1.9;76.1
78679;BME280;67994;59.334;13.528;2023-04-02T00:01:19;101800.0;;;-1.8;76.1
78679;BME280;67994;59.334;13.528;2023-04-02T00:03:02;101800.0;;;-1.9;77.6
78679;BME280;67994;59.334;13.528;2023-04-02T00:04:04;101800.0;;;-1.9;77.4
78679;BME280;67994;59.334;13.528;2023-04-02T00:06:00;101800.0;;;-1.8;76.2
78679;BME280;67994;59.334;13.528;2023-04-02T00:07:21;101800.0;;;-1.9;76.6
78679;BME280;67994;59.334;13.528;2023-04-02T00:08:01;101800.0;;;-1.9;76.6
78679;BME280;67994;59.334;13.528;2023-04-02T00:09:02;101800.0;;;-1.9;76.3
78679;BME280;67994;59.334;13.528;2023-04-02T00:10:00;101800.0;;;-2.0;76.8
78679;BME280;67994;59.334;13.528;2023-04-02T00:11:00;101800.0;;;-2.0;77.1
78679;BME280;67994;59.334;13.528;2023-04-02T00:12:10;101800.0;;;-2.0;77.4
78679;BME280;67994;59.334;13.528;2023-04-02T00:13:03;101800.0;;;-2.0;77.4
78679;BME280;67994;59.334;13.528;2023-04-02T00:14:00;101800.0;;;-1.9;76.7
78679;BME280;67994;59.334;13.528;2023-04-02T00:15:00;101800.0;;;-1.9;76.4
78679;BME280;67994;59.334;13.528;2023-04-02T00:16:02;101800.0;;;-1.8;76.6
78679;BME280;67994;59.334;13.528;2023-04-02T00:17:03;101800.0;;;-2.0;76.9
78679;BME280;67994;59.334;13.528;2023-04-02T00:18:00;101800.0;;;-2.1;77.2
78679;BME280;67994;59.334;13.528;2023-04-02T00:19:03;101800.0;;;-2.2;76.9
78679;BME280;67994;59.334;13.528;2023-04-02T00:20:03;101800.0;;;-2.2;76.9
78679;BME280;67994;59.334;13.528;2023-04-02T00:21:07;101800.0;;;-2.2;76.5
78679;BME280;67994;59.334;13.528;2023-04-02T00:22:02;101800.0;;;-2.4;76.3
78679;BME280;67994;59.334;13.528;2023-04-02T00:23:01;101800.0;;;-2.4;77.0
78679;BME280;67994;59.334;13.528;2023-04-02T00:24:01;101800.0;;;-2.4;76.9
78679;BME280;67994;59.334;13.528;2023-04-02T00:25:07;101800.0;;;-2.7;76.8
78679;BME280;67994;59.334;13.528;2023-04-02T00:26:00;101800.0;;;-2.5;77.4
78679;BME280;67994;59.334;13.528;2023-04-02T00:27:00;101800.0;;;-2.4;77.4
78679;BME280;67994;59.334;13.528;2023-04-02T00:28:02;101800.0;;;-2.4;77.3
78679;BME280;67994;59.334;13.528;2023-04-02T00:29:02;101800.0;;;-2.3;77.7
78679;BME280;67994;59.334;13.528;2023-04-02T00:30:00;101800.0;;;-2.3;77.7
78679;BME280;67994;59.334;13.528;2023-04-02T00:31:00;101800.0;;;-2.2;77.4
78679;BME280;67994;59.334;13.528;2023-04-02T00:32:00;101800.0;;;-2.2;76.1
78679;BME280;67994;59.334;13.528;2023-04-02T00:33:00;101800.0;;;-2.2;76.6
78679;BME280;67994;59.334;13.528;2023-04-02T00:34:01;101800.0;;;-2.1;77.1
78679;BME280;67994;59.334;13.528;2023-04-02T00:35:01;101800.0;;;-2.1;76.9
78679;BME280;67994;59.334;13.528;2023-04-02T00:36:04;101800.0;;;-2.2;77.2
78679;BME280;67994;59.334;13.528;2023-04-02T00:37:01;101800.0;;;-2.2;77.6
78679;BME280;67994;59.334;13.528;2023-04-02T00:38:00;101800.0;;;-2.2;77.6
78679;BME280;67994;59.334;13.528;2023-04-02T00:39:01;101800.0;;;-2.3;77.9
78679;BME280;67994;59.334;13.528;2023-04-02T00:40:02;101800.0;;;-2.4;77.3
78679;BME280;67994;59.334;13.528;2023-04-02T00:41:02;101800.0;;;-2.3;77.8
78679;BME280;67994;59.334;13.528;2023-04-02T00:42:01;101800.0;;;-2.3;77.6
78679;BME280;67994;59.334;13.528;2023-04-02T00:43:00;101800.0;;;-2.4;77.8
78679;BME280;67994;59.334;13.528;2023-04-02T00:44:00;101800.0;;;-2.6;78.4
78679;BME280;67994;59.334;13.528;2023-04-02T00:45:00;101800.0;;;-2.4;78.1
78679;BME280;67994;59.334;13.528;2023-04-02T00:46:03;101800.0;;;-2.5;77.8
78679;BME280;67994;59.334;13.528;2023-04-02T00:47:09;101800.0;;;-2.5;77.4
78679;BME280;67994;59.334;13.528;2023-04-02T00:48:12;101800.0;;;-2.4;77.6
78679;BME280;67994;59.334;13.528;2023-04-02T00:49:05;101800.0;;;-2.4;77.4
78679;BME280;67994;59.334;13.528;2023-04-02T00:50:05;101800.0;;;-2.4;77.3
78679;BME280;67994;59.334;13.528;2023-04-02T00:51:07;101800.0;;;-2.3;77.7
78679;BME280;67994;59.334;13.528;2023-04-02T00:52:02;101800.0;;;-2.3;77.8
78679;BME280;67994;59.334;13.528;2023-04-02T00:53:05;101800.0;;;-2.3;77.2
78679;BME280;67994;59.334;13.528;2023-04-02T00:54:02;101800.0;;;-2.3;77.8
78679;BME280;67994;59.334;13.528;2023-04-02T00:55:06;101800.0;;;-2.1;78.1
78679;BME280;67994;59.334;13.528;2023-04-02T00:56:00;101800.0;;;-2.2;77.1
78679;BME280;67994;59.334;13.528;2023-04-02T00:57:00;101800.0;;;-2.4;77.5
78679;BME280;67994;59.334;13.528;2023-04-02T00:58:01;101800.0;;;-2.4;77.5
78679;BME280;67994;59.334;13.528;2023-04-02T00:59:00;101800.0;;;-2.4;77.4
78679;BME280;67994;59.334;13.528;2023-04-02T01:00:09;101800.0;;;-2.4;78.5
78679;BME280;67994;59.334;13.528;2023-04-02T01:01:00;101800.0;;;-2.6;78.9
78679;BME280;67994;59.334;13.528;2023-04-02T01:03:14;101800.0;;;-2.5;78.5
78679;BME280;67994;59.334;13.528;2023-04-02T01:04:01;101800.0;;;-2.5;78.5
78679;BME280;67994;59.334;13.528;2023-04-02T01:05:19;101800.0;;;-2.6;78.0
78679;BME280;67994;59.334;13.528;2023-04-02T01:06:03;101800.0;;;-2.6;78.0
78679;BME280;67994;59.334;13.528;2023-04-02T01:07:03;101800.0;;;-2.6;77.9
78679;BME280;67994;59.334;13.528;2023-04-02T01:08:06;101800.0;;;-2.6;78.1
78679;BME280;67994;59.334;13.528;2023-04-02T01:09:08;101800.0;;;-2.6;78.6
78679;BME280;67994;59.334;13.528;2023-04-02T01:10:14;101800.0;;;-2.6;78.4
78679;BME280;67994;59.334;13.528;2023-04-02T01:11:06;101800.0;;;-2.6;79.1
78679;BME280;67994;59.334;13.528;2023-04-02T01:12:14;101800.0;;;-2.6;79.2
78679;BME280;67994;59.334;13.528;2023-04-02T01:13:10;101800.0;;;-2.6;79.2
78679;BME280;67994;59.334;13.528;2023-04-02T01:14:06;101800.0;;;-2.6;78.8
78679;BME280;67994;59.334;13.528;2023-04-02T01:15:07;101800.0;;;-2.6;78.8
78679;BME280;67994;59.334;13.528;2023-04-02T01:16:03;101800.0;;;-2.6;78.8
78679;BME280;67994;59.334;13.528;2023-04-02T01:17:05;101800.0;;;-2.6;78.8
78679;BME280;67994;59.334;13.528;2023-04-02T01:18:04;101800.0;;;-2.6;78.8
78679;BME280;67994;59.334;13.528;2023-04-02T01:19:07;101800.0;;;-2.6;79.0
78679;BME280;67994;59.334;13.528;2023-04-02T01:21:13;101900.0;;;-2.7;79.8
78679;BME280;67994;59.334;13.528;2023-04-02T01:22:04;101900.0;;;-2.7;79.7
78679;BME280;67994;59.334;13.528;2023-04-02T01:23:03;101900.0;;;-2.6;79.4
78679;BME280;67994;59.334;13.528;2023-04-02T01:24:02;101900.0;;;-2.7;78.8
78679;BME280;67994;59.334;13.528;2023-04-02T01:25:01;101900.0;;;-2.8;79.2
78679;BME280;67994;59.334;13.528;2023-04-02T01:26:04;101900.0;;;-2.9;78.8
78679;BME280;67994;59.334;13.528;2023-04-02T01:27:01;101900.0;;;-2.7;78.4
78679;BME280;67994;59.334;13.528;2023-04-02T01:28:04;101900.0;;;-2.6;78.2
78679;BME280;67994;59.334;13.528;2023-04-02T01:29:02;101900.0;;;-2.7;78.3
78679;BME280;67994;59.334;13.528;2023-04-02T01:30:01;101900.0;;;-2.6;77.8
78679;BME280;67994;59.334;13.528;2023-04-02T01:31:01;101900.0;;;-2.7;77.4
78679;BME280;67994;59.334;13.528;2023-04-02T01:32:02;101900.0;;;-2.8;77.5
78679;BME280;67994;59.334;13.528;2023-04-02T01:33:00;101900.0;;;-2.8;78.3
78679;BME280;67994;59.334;13.528;2023-04-02T01:34:01;101900.0;;;-2.7;78.0
78679;BME280;67994;59.334;13.528;2023-04-02T01:35:00;101900.0;;;-2.7;78.0
78679;BME280;67994;59.334;13.528;2023-04-02T01:36:05;101900.0;;;-2.8;78.2
78679;BME280;67994;59.334;13.528;2023-04-02T01:37:15;101900.0;;;-2.8;78.1
78679;BME280;67994;59.334;13.528;2023-04-02T01:38:05;101900.0;;;-2.9;77.5
78679;BME280;67994;59.334;13.528;2023-04-02T01:39:06;101900.0;;;-2.8;77.2
78679;BME280;67994;59.334;13.528;2023-04-02T01:40:08;101900.0;;;-2.8;77.2
78679;BME280;67994;59.334;13.528;2023-04-02T01:41:06;101900.0;;;-2.7;77.3
78679;BME280;67994;59.334;13.528;2023-04-02T01:42:04;101900.0;;;-2.7;77.3
78679;BME280;67994;59.334;13.528;2023-04-02T01:43:06;101900.0;;;-2.7;77.3
78679;BME280;67994;59.334;13.528;2023-04-02T01:44:03;101900.0;;;-2.7;77.3
78679;BME280;67994;59.334;13.528;2023-04-02T01:45:02;101900.0;;;-2.7;77.3
78679;BME280;67994;59.334;13.528;2023-04-02T01:46:04;101900.0;;;-2.7;77.3
78679;BME280;67994;59.334;13.528;2023-04-02T01:47:01;101900.0;;;-2.7;77.3
78679;BME280;67994;59.334;13.528;2023-04-02T01:48:00;101900.0;;;-2.7;77.3
78679;BME280;67994;59.334;13.528;2023-04-02T01:49:03;101900.0;;;-3.0;77.7
78679;BME280;67994;59.334;13.528;2023-04-02T01:50:03;101900.0;;;-2.9;76.7
78679;BME280;67994;59.334;13.528;2023-04-02T01:51:06;101900.0;;;-2.8;76.5
78679;BME280;67994;59.334;13.528;2023-04-02T01:52:00;101900.0;;;-2.8;76.5
78679;BME280;67994;59.334;13.528;2023-04-02T01:53:03;101900.0;;;-2.9;76.3
78679;BME280;67994;59.334;13.528;2023-04-02T01:54:02;101900.0;;;-2.9;76.3
78679;BME280;67994;59.334;13.528;2023-04-02T01:55:00;101900.0;;;-2.9;76.0
78679;BME280;67994;59.334;13.528;2023-04-02T01:56:01;101900.0;;;-2.9;75.6
78679;BME280;67994;59.334;13.528;2023-04-02T01:57:00;101900.0;;;-3.0;76.2
78679;BME280;67994;59.334;13.528;2023-04-02T01:58:01;101900.0;;;-3.0;76.5
78679;BME280;67994;59.334;13.528;2023-04-02T01:59:00;101900.0;;;-2.9;76.3
78679;BME280;67994;59.334;13.528;2023-04-02T02:00:00;101900.0;;;-2.9;76.2
78679;BME280;67994;59.334;13.528;2023-04-02T02:01:02;101900.0;;;-3.1;75.5
78679;BME280;67994;59.334;13.528;2023-04-02T02:02:01;101900.0;;;-3.1;75.5
78679;BME280;67994;59.334;13.528;2023-04-02T02:03:00;101900.0;;;-3.0;76.2
78679;BME280;67994;59.334;13.528;2023-04-02T02:04:00;101900.0;;;-3.0;76.2
78679;BME280;67994;59.334;13.528;2023-04-02T02:05:00;101900.0;;;-2.9;75.9
78679;BME280;67994;59.334;13.528;2023-04-02T02:06:01;101900.0;;;-2.9;75.6
78679;BME280;67994;59.334;13.528;2023-04-02T02:07:00;101900.0;;;-3.0;75.6
78679;BME280;67994;59.334;13.528;2023-04-02T02:08:00;101900.0;;;-3.0;75.6
78679;BME280;67994;59.334;13.528;2023-04-02T02:09:02;101900.0;;;-3.0;75.6
78679;BME280;67994;59.334;13.528;2023-04-02T02:10:00;101900.0;;;-3.0;75.7
78679;BME280;67994;59.334;13.528;2023-04-02T02:11:01;101900.0;;;-3.0;75.7
78679;BME280;67994;59.334;13.528;2023-04-02T02:12:00;101900.0;;;-3.0;75.8
78679;BME280;67994;59.334;13.528;2023-04-02T02:13:00;101900.0;;;-3.0;75.6
78679;BME280;67994;59.334;13.528;2023-04-02T02:14:04;101900.0;;;-2.9;75.6
78679;BME280;67994;59.334;13.528;2023-04-02T02:15:00;101900.0;;;-3.0;75.5
78679;BME280;67994;59.334;13.528;2023-04-02T02:16:02;101900.0;;;-3.0;75.4
78679;BME280;67994;59.334;13.528;2023-04-02T02:17:01;101900.0;;;-3.1;75.3
78679;BME280;67994;59.334;13.528;2023-04-02T02:18:02;101900.0;;;-3.1;75.3
78679;BME280;67994;59.334;13.528;2023-04-02T02:19:02;101900.0;;;-3.1;75.2
78679;BME280;67994;59.334;13.528;2023-04-02T02:20:01;101900.0;;;-3.0;75.0
78679;BME280;67994;59.334;13.528;2023-04-02T02:21:03;101900.0;;;-3.2;75.4
78679;BME280;67994;59.334;13.528;2023-04-02T02:22:06;101900.0;;;-3.2;76.0
78679;BME280;67994;59.334;13.528;2023-04-02T02:23:00;101900.0;;;-3.2;76.0
78679;BME280;67994;59.334;13.528;2023-04-02T02:24:00;101900.0;;;-3.1;75.7
78679;BME280;67994;59.334;13.528;2023-04-02T02:25:02;101900.0;;;-3.0;75.2
78679;BME280;67994;59.334;13.528;2023-04-02T02:26:00;101900.0;;;-3.1;75.0
78679;BME280;67994;59.334;13.528;2023-04-02T02:27:07;101900.0;;;-3.1;75.0
78679;BME280;67994;59.334;13.528;2023-04-02T02:28:05;101900.0;;;-3.1;74.8
78679;BME280;67994;59.334;13.528;2023-04-02T02:29:02;101900.0;;;-3.1;74.6
78679;BME280;67994;59.334;13.528;2023-04-02T02:30:04;101900.0;;;-3.3;75.0
78679;BME280;67994;59.334;13.528;2023-04-02T02:31:01;101900.0;;;-3.2;75.0
78679;BME280;67994;59.334;13.528;2023-04-02T02:32:01;101900.0;;;-3.2;75.0
78679;BME280;67994;59.334;13.528;2023-04-02T02:33:04;101900.0;;;-3.3;75.4
78679;BME280;67994;59.334;13.528;2023-04-02T02:34:02;101900.0;;;-3.3;75.1
78679;BME280;67994;59.334;13.528;2023-04-02T02:35:03;101900.0;;;-3.2;75.4
78679;BME280;67994;59.334;13.528;2023-04-02T02:36:03;101900.0;;;-3.2;75.4
78679;BME280;67994;59.334;13.528;2023-04-02T02:37:03;101900.0;;;-3.3;75.3
78679;BME280;67994;59.334;13.528;2023-04-02T02:38:21;101900.0;;;-3.2;75.4
78679;BME280;67994;59.334;13.528;2023-04-02T02:39:02;101900.0;;;-3.2;75.4
78679;BME280;67994;59.334;13.528;2023-04-02T02:40:02;101900.0;;;-3.2;75.4
78679;BME280;67994;59.334;13.528;2023-04-02T02:41:03;101900.0;;;-3.1;75.1
78679;BME280;67994;59.334;13.528;2023-04-02T02:42:03;101900.0;;;-3.1;75.1
78679;BME280;67994;59.334;13.528;2023-04-02T02:43:01;101900.0;;;-3.1;75.1
78679;BME280;67994;59.334;13.528;2023-04-02T02:44:04;101900.0;;;-3.1;75.0
78679;BME280;67994;59.334;13.528;2023-04-02T02:45:01;102000.0;;;-3.1;74.9
78679;BME280;67994;59.334;13.528;2023-04-02T02:46:01;102000.0;;;-3.1;74.9
78679;BME280;67994;59.334;13.528;2023-04-02T02:47:01;102000.0;;;-3.2;75.0
78679;BME280;67994;59.334;13.528;2023-04-02T02:48:01;102000.0;;;-3.2;75.1
78679;BME280;67994;59.334;13.528;2023-04-02T02:49:01;102000.0;;;-3.3;75.0
78679;BME280;67994;59.334;13.528;2023-04-02T02:50:02;102000.0;;;-3.2;75.2
78679;BME280;67994;59.334;13.528;2023-04-02T02:51:01;102000.0;;;-3.3;75.1
78679;BME280;67994;59.334;13.528;2023-04-02T02:52:08;102000.0;;;-3.3;75.1
78679;BME280;67994;59.334;13.528;2023-04-02T02:53:03;102000.0;;;-3.3;75.1
78679;BME280;67994;59.334;13.528;2023-04-02T02:54:01;102000.0;;;-3.2;75.0
78679;BME280;67994;59.334;13.528;2023-04-02T02:55:02;102000.0;;;-3.1;74.8
78679;BME280;67994;59.334;13.528;2023-04-02T02:56:00;102000.0;;;-3.4;74.8
78679;BME280;67994;59.334;13.528;2023-04-02T02:57:02;102000.0;;;-3.3;74.0
78679;BME280;67994;59.334;13.528;2023-04-02T02:58:03;102000.0;;;-3.3;75.2
78679;BME280;67994;59.334;13.528;2023-04-02T02:59:00;102000.0;;;-3.3;75.3
78679;BME280;67994;59.334;13.528;2023-04-02T03:00:01;102000.0;;;-3.3;75.3
78679;BME280;67994;59.334;13.528;2023-04-02T03:01:00;102000.0;;;-3.3;75.2
78679;BME280;67994;59.334;13.528;2023-04-02T03:02:01;102000.0;;;-3.2;75.4
78679;BME280;67994;59.334;13.528;2023-04-02T03:03:03;102000.0;;;-3.3;75.7
78679;BME280;67994;59.334;13.528;2023-04-02T03:04:00;102000.0;;;-3.3;76.0
78679;BME280;67994;59.334;13.528;2023-04-02T03:05:00;102000.0;;;-3.4;76.1
78679;BME280;67994;59.334;13.528;2023-04-02T03:06:03;102000.0;;;-3.5;76.3
78679;BME280;67994;59.334;13.528;2023-04-02T03:07:01;102000.0;;;-3.4;76.3
78679;BME280;67994;59.334;13.528;2023-04-02T03:08:02;102000.0;;;-3.6;76.1
78679;BME280;67994;59.334;13.528;2023-04-02T03:09:05;102000.0;;;-3.6;76.4
78679;BME280;67994;59.334;13.528;2023-04-02T03:10:03;102000.0;;;-3.5;76.3
78679;BME280;67994;59.334;13.528;2023-04-02T03:11:04;102000.0;;;-3.5;75.9
78679;BME280;67994;59.334;13.528;2023-04-02T03:12:03;102000.0;;;-3.4;76.0
78679;BME280;67994;59.334;13.528;2023-04-02T03:13:07;102000.0;;;-3.4;75.8
78679;BME280;67994;59.334;13.528;2023-04-02T03:14:06;102000.0;;;-3.5;76.3
78679;BME280;67994;59.334;13.528;2023-04-02T03:15:04;102000.0;;;-3.5;76.5
78679;BME280;67994;59.334;13.528;2023-04-02T03:16:04;102000.0;;;-3.5;76.6
78679;BME280;67994;59.334;13.528;2023-04-02T03:17:04;102000.0;;;-3.5;76.6
78679;BME280;67994;59.334;13.528;2023-04-02T03:18:02;102000.0;;;-3.6;76.5
78679;BME280;67994;59.334;13.528;2023-04-02T03:19:03;102000.0;;;-3.5;76.6
78679;BME280;67994;59.334;13.528;2023-04-02T03:20:03;102000.0;;;-3.5;76.8
78679;BME280;67994;59.334;13.528;2023-04-02T03:21:01;102000.0;;;-3.5;76.6
78679;BME280;67994;59.334;13.528;2023-04-02T03:22:03;102000.0;;;-3.5;76.5
78679;BME280;67994;59.334;13.528;2023-04-02T03:23:05;102000.0;;;-3.5;76.7
78679;BME280;67994;59.334;13.528;2023-04-02T03:24:03;102000.0;;;-3.6;76.5
78679;BME280;67994;59.334;13.528;2023-04-02T03:25:02;102000.0;;;-3.6;76.7
78679;BME280;67994;59.334;13.528;2023-04-02T03:26:03;102000.0;;;-3.5;76.7
78679;BME280;67994;59.334;13.528;2023-04-02T03:27:03;102000.0;;;-3.5;76.9
78679;BME280;67994;59.334;13.528;2023-04-02T03:28:02;102000.0;;;-3.5;76.9
78679;BME280;67994;59.334;13.528;2023-04-02T03:29:03;102000.0;;;-3.5;76.9
78679;BME280;67994;59.334;13.528;2023-04-02T03:30:08;102000.0;;;-3.5;76.9
78679;BME280;67994;59.334;13.528;2023-04-02T03:31:02;102000.0;;;-3.6;76.6
78679;BME280;67994;59.334;13.528;2023-04-02T03:32:04;102000.0;;;-3.6;76.9
78679;BME280;67994;59.334;13.528;2023-04-02T03:33:03;102000.0;;;-3.6;77.0
78679;BME280;67994;59.334;13.528;2023-04-02T03:34:03;102000.0;;;-3.6;77.1
78679;BME280;67994;59.334;13.528;2023-04-02T03:35:02;102000.0;;;-3.6;77.1
78679;BME280;67994;59.334;13.528;2023-04-02T03:36:02;102000.0;;;-3.6;77.1
78679;BME280;67994;59.334;13.528;2023-04-02T03:37:05;102000.0;;;-3.6;77.0
78679;BME280;67994;59.334;13.528;2023-04-02T03:38:03;102000.0;;;-3.5;76.9
78679;BME280;67994;59.334;13.528;2023-04-02T03:39:07;102000.0;;;-3.5;76.8
78679;BME280;67994;59.334;13.528;2023-04-02T03:40:01;102000.0;;;-3.6;76.8
78679;BME280;67994;59.334;13.528;2023-04-02T03:41:03;102000.0;;;-3.5;76.7
78679;BME280;67994;59.334;13.528;2023-04-02T03:42:04;102000.0;;;-3.5;76.7
78679;BME280;67994;59.334;13.528;2023-04-02T03:43:03;102000.0;;;-3.5;76.2
78679;BME280;67994;59.334;13.528;2023-04-02T03:44:03;102000.0;;;-3.6;76.6
78679;BME280;67994;59.334;13.528;2023-04-02T03:45:04;102000.0;;;-3.6;76.8
78679;BME280;67994;59.334;13.528;2023-04-02T03:46:10;102000.0;;;-3.6;76.8
78679;BME280;67994;59.334;13.528;2023-04-02T03:47:02;102000.0;;;-3.6;76.8
78679;BME280;67994;59.334;13.528;2023-04-02T03:48:03;102000.0;;;-3.6;76.7
78679;BME280;67994;59.334;13.528;2023-04-02T03:49:02;102000.0;;;-3.6;76.7
78679;BME280;67994;59.334;13.528;2023-04-02T03:50:03;102000.0;;;-3.5;76.3
78679;BME280;67994;59.334;13.528;2023-04-02T03:51:04;102000.0;;;-3.5;76.3
78679;BME280;67994;59.334;13.528;2023-04-02T03:52:04;102000.0;;;-3.5;76.3
78679;BME280;67994;59.334;13.528;2023-04-02T03:53:00;102000.0;;;-3.5;76.5
78679;BME280;67994;59.334;13.528;2023-04-02T03:54:00;102000.0;;;-3.6;76.2
78679;BME280;67994;59.334;13.528;2023-04-02T03:55:00;102000.0;;;-3.7;76.1
78679;BME280;67994;59.334;13.528;2023-04-02T03:56:00;102000.0;;;-3.7;76.1
78679;BME280;67994;59.334;13.528;2023-04-02T03:57:00;102000.0;;;-3.7;76.4
78679;BME280;67994;59.334;13.528;2023-04-02T03:58:04;102000.0;;;-3.6;76.3
78679;BME280;67994;59.334;13.528;2023-04-02T03:59:05;102000.0;;;-3.5;76.3
78679;BME280;67994;59.334;13.528;2023-04-02T04:00:03;102000.0;;;-3.5;76.2
78679;BME280;67994;59.334;13.528;2023-04-02T04:01:05;102000.0;;;-3.6;76.2
78679;BME280;67994;59.334;13.528;2023-04-02T04:02:06;102000.0;;;-3.6;76.2
78679;BME280;67994;59.334;13.528;2023-04-02T04:03:04;102000.0;;;-3.6;76.2
78679;BME280;67994;59.334;13.528;2023-04-02T04:04:04;102000.0;;;-3.6;76.2
78679;BME280;67994;59.334;13.528;2023-04-02T04:05:00;102000.0;;;-3.5;76.2
78679;BME280;67994;59.334;13.528;2023-04-02T04:06:05;102100.0;;;-3.6;76.1
78679;BME280;67994;59.334;13.528;2023-04-02T04:07:00;102100.0;;;-3.6;76.1
78679;BME280;67994;59.334;13.528;2023-04-02T04:08:02;102100.0;;;-3.6;76.0
78679;BME280;67994;59.334;13.528;2023-04-02T04:09:06;102100.0;;;-3.7;76.1
78679;BME280;67994;59.334;13.528;2023-04-02T04:10:01;102100.0;;;-3.7;76.5
78679;BME280;67994;59.334;13.528;2023-04-02T04:11:02;102100.0;;;-3.7;76.5
78679;BME280;67994;59.334;13.528;2023-04-02T04:12:19;102100.0;;;-3.7;76.6
78679;BME280;67994;59.334;13.528;2023-04-02T04:13:03;102100.0;;;-3.6;76.4
78679;BME280;67994;59.334;13.528;2023-04-02T04:14:04;102100.0;;;-3.6;76.0
78679;BME280;67994;59.334;13.528;2023-04-02T04:15:05;102100.0;;;-3.7;76.0
78679;BME280;67994;59.334;13.528;2023-04-02T04:16:04;102100.0;;;-3.7;75.8
78679;BME280;67994;59.334;13.528;2023-04-02T04:17:03;102100.0;;;-3.7;76.2
78679;BME280;67994;59.334;13.528;2023-04-02T04:18:05;102100.0;;;-3.8;76.4
78679;BME280;67994;59.334;13.528;2023-04-02T04:19:03;102100.0;;;-3.7;76.4
78679;BME280;67994;59.334;13.528;2023-04-02T04:20:02;102100.0;;;-3.8;76.3
78679;BME280;67994;59.334;13.528;2023-04-02T04:21:02;102100.0;;;-3.8;76.3
78679;BME280;67994;59.334;13.528;2023-04-02T04:22:09;102100.0;;;-3.7;76.3
78679;BME280;67994;59.334;13.528;2023-04-02T04:23:09;102100.0;;;-3.7;76.2
78679;BME280;67994;59.334;13.528;2023-04-02T04:24:02;102100.0;;;-4.0;76.5
78679;BME280;67994;59.334;13.528;2023-04-02T04:25:02;102100.0;;;-4.1;76.5
78679;BME280;67994;59.334;13.528;2023-04-02T04:26:02;102100.0;;;-3.8;76.8
78679;BME280;67994;59.334;13.528;2023-04-02T04:27:05;102100.0;;;-3.8;76.4
78679;BME280;67994;59.334;13.528;2023-04-02T04:28:06;102100.0;;;-3.8;76.4
78679;BME280;67994;59.334;13.528;2023-04-02T04:29:15;102100.0;;;-3.8;76.3
78679;BME280;67994;59.334;13.528;2023-04-02T04:30:03;102100.0;;;-3.8;76.4
78679;BME280;67994;59.334;13.528;2023-04-02T04:31:03;102100.0;;;-3.8;76.4
78679;BME280;67994;59.334;13.528;2023-04-02T04:32:13;102100.0;;;-3.7;76.3
78679;BME280;67994;59.334;13.528;2023-04-02T04:33:03;102100.0;;;-3.7;76.4
78679;BME280;67994;59.334;13.528;2023-04-02T04:34:05;102100.0;;;-3.6;75.9
78679;BME280;67994;59.334;13.528;2023-04-02T04:35:04;102100.0;;;-3.7;76.1
78679;BME280;67994;59.334;13.528;2023-04-02T04:36:01;102100.0;;;-3.7;76.1
78679;BME280;67994;59.334;13.528;2023-04-02T04:37:02;102100.0;;;-3.6;75.9
78679;BME280;67994;59.334;13.528;2023-04-02T04:38:03;102100.0;;;-3.7;76.0
78679;BME280;67994;59.334;13.528;2023-04-02T04:39:07;102100.0;;;-3.5;75.8
78679;BME280;67994;59.334;13.528;2023-04-02T04:40:03;102100.0;;;-3.6;75.8
78679;BME280;67994;59.334;13.528;2023-04-02T04:41:03;102100.0;;;-3.7;75.7
78679;BME280;67994;59.334;13.528;2023-04-02T04:42:02;102100.0;;;-3.4;75.7
78679;BME280;67994;59.334;13.528;2023-04-02T04:43:02;102100.0;;;-3.4;75.3
78679;BME280;67994;59.334;13.528;2023-04-02T04:44:05;102100.0;;;-3.4;75.0
78679;BME280;67994;59.334;13.528;2023-04-02T04:45:05;102100.0;;;-3.5;75.1
78679;BME280;67994;59.334;13.528;2023-04-02T04:46:02;102100.0;;;-3.3;75.1
78679;BME280;67994;59.334;13.528;2023-04-02T04:47:02;102100.0;;;-3.2;75.0
78679;BME280;67994;59.334;13.528;2023-04-02T04:48:02;102100.0;;;-3.2;75.2
78679;BME280;67994;59.334;13.528;2023-04-02T04:49:04;102100.0;;;-3.2;75.0
78679;BME280;67994;59.334;13.528;2023-04-02T04:50:03;102100.0;;;-3.0;74.6
78679;BME280;67994;59.334;13.528;2023-04-02T04:51:01;102100.0;;;-3.0;74.6
78679;BME280;67994;59.334;13.528;2023-04-02T04:52:06;102100.0;;;-2.9;74.7
78679;BME280;67994;59.334;13.528;2023-04-02T04:53:05;102100.0;;;-3.0;74.8
78679;BME280;67994;59.334;13.528;2023-04-02T04:54:00;102100.0;;;-2.9;74.6
78679;BME280;67994;59.334;13.528;2023-04-02T04:55:00;102100.0;;;-2.9;74.7
78679;BME280;67994;59.334;13.528;2023-04-02T04:56:02;102100.0;;;-2.9;74.7
78679;BME280;67994;59.334;13.528;2023-04-02T04:57:01;102100.0;;;-2.9;74.3
78679;BME280;67994;59.334;13.528;2023-04-02T04:58:04;102100.0;;;-2.8;74.2
78679;BME280;67994;59.334;13.528;2023-04-02T04:59:02;102100.0;;;-2.8;74.3
78679;BME280;67994;59.334;13.528;2023-04-02T05:00:05;102100.0;;;-2.9;74.4
78679;BME280;67994;59.334;13.528;2023-04-02T05:01:03;102100.0;;;-2.9;74.3
78679;BME280;67994;59.334;13.528;2023-04-02T05:02:05;102100.0;;;-2.9;74.5
78679;BME280;67994;59.334;13.528;2023-04-02T05:03:05;102100.0;;;-2.9;74.2
78679;BME280;67994;59.334;13.528;2023-04-02T05:04:03;102200.0;;;-2.8;73.7
78679;BME280;67994;59.334;13.528;2023-04-02T05:05:01;102200.0;;;-3.1;74.1
78679;BME280;67994;59.334;13.528;2023-04-02T05:06:04;102200.0;;;-3.1;74.1
78679;BME280;67994;59.334;13.528;2023-04-02T05:07:02;102200.0;;;-3.1;74.1
78679;BME280;67994;59.334;13.528;2023-04-02T05:08:04;102200.0;;;-3.0;74.0
78679;BME280;67994;59.334;13.528;2023-04-02T05:09:07;102200.0;;;-2.9;73.7
78679;BME280;67994;59.334;13.528;2023-04-02T05:10:05;102200.0;;;-3.0;74.1
78679;BME280;67994;59.334;13.528;2023-04-02T05:11:02;102200.0;;;-3.0;74.0
78679;BME280;67994;59.334;13.528;2023-04-02T05:12:06;102200.0;;;-3.1;74.2
78679;BME280;67994;59.334;13.528;2023-04-02T05:13:03;102200.0;;;-2.9;74.2
78679;BME280;67994;59.334;13.528;2023-04-02T05:14:02;102200.0;;;-2.9;74.2
78679;BME280;67994;59.334;13.528;2023-04-02T05:15:03;102200.0;;;-2.7;73.6
78679;BME280;67994;59.334;13.528;2023-04-02T05:16:06;102200.0;;;-2.6;73.7
78679;BME280;67994;59.334;13.528;2023-04-02T05:17:03;102200.0;;;-2.5;73.3
78679;BME280;67994;59.334;13.528;2023-04-02T05:18:10;102200.0;;;-2.4;73.3
78679;BME280;67994;59.334;13.528;2023-04-02T05:19:04;102200.0;;;-2.6;73.3
78679;BME280;67994;59.334;13.528;2023-04-02T05:20:03;102200.0;;;-2.4;73.0
78679;BME280;67994;59.334;13.528;2023-04-02T05:21:05;102200.0;;;-2.4;73.0
78679;BME280;67994;59.334;13.528;2023-04-02T05:22:04;102200.0;;;-2.5;73.3
78679;BME280;67994;59.334;13.528;2023-04-02T05:23:03;102200.0;;;-2.5;73.5
78679;BME280;67994;59.334;13.528;2023-04-02T05:24:12;102200.0;;;-2.5;73.5
78679;BME280;67994;59.334;13.528;2023-04-02T05:25:09;102200.0;;;-2.6;73.6